createdAt,value
2023-04-10T00:02:07.088Z,80.10
2023-04-10T00:06:09.196Z,80.05
2023-04-10T00:10:11.258Z,79.27
2023-04-10T00:14:13.414Z,79.12
2023-04-10T00:18:15.455Z,80.27
2023-04-10T00:22:18.466Z,80.53
2023-04-10T00:26:21.109Z,81.85
2023-04-10T00:30:23.508Z,81.74
2023-04-10T00:34:25.808Z,80.87
2023-04-10T00:38:27.871Z,81.63
2023-04-10T00:42:29.970Z,82.89
2023-04-10T00:46:32.600Z,83.49
2023-04-10T00:50:34.772Z,82.85
2023-04-10T00:54:36.806Z,83.68
2023-04-10T00:58:39.314Z,82.53
2023-04-10T01:02:41.890Z,82.67
2023-04-10T01:07:18.897Z,83.29
2023-04-10T01:11:38.414Z,84.54
2023-04-10T01:16:01.740Z,84.84
2023-04-10T01:20:12.281Z,84.73
2023-04-10T01:24:33.232Z,83.05
2023-04-10T01:29:01.166Z,82.27
2023-04-10T01:33:09.126Z,82.61
2023-04-10T01:37:18.100Z,83.25
2023-04-10T01:41:22.354Z,84.08
2023-04-10T01:45:28.753Z,84.12
2023-04-10T01:49:32.591Z,82.65
2023-04-10T01:53:39.250Z,83.06
2023-04-10T01:57:41.526Z,84.38
2023-04-10T02:01:43.713Z,85.36
2023-04-10T02:05:53.545Z,84.87
2023-04-10T02:10:08.944Z,84.58
2023-04-10T02:14:16.400Z,84.50
2023-04-10T02:18:19.220Z,84.64
2023-04-10T02:22:23.027Z,84.65
2023-04-10T02:26:25.243Z,85.39
2023-04-10T02:30:27.275Z,84.41
2023-04-10T02:34:29.781Z,84.99
2023-04-10T02:38:31.858Z,85.45
2023-04-10T02:42:34.104Z,84.62
2023-04-10T02:46:37.139Z,86.26
2023-04-10T02:50:45.926Z,86.78
2023-04-10T02:54:48.263Z,86.20
2023-04-10T02:58:50.810Z,85.57
2023-04-10T03:02:53.729Z,85.38
2023-04-10T03:06:56.597Z,85.92
2023-04-10T03:10:59.230Z,85.86
2023-04-10T03:15:01.255Z,86.54
2023-04-10T03:19:03.779Z,86.29
2023-04-10T03:23:06.449Z,86.23
2023-04-10T03:27:08.437Z,86.70
2023-04-10T03:31:12.518Z,86.22
2023-04-10T03:35:16.094Z,86.27
2023-04-10T03:39:18.164Z,86.52
2023-04-10T03:43:20.241Z,86.61
2023-04-10T03:47:23.078Z,86.41
2023-04-10T03:51:27.786Z,86.49
2023-04-10T03:55:29.956Z,86.53
2023-04-10T03:59:38.547Z,86.44
2023-04-10T04:03:44.885Z,85.78
2023-04-10T04:08:10.061Z,86.31
2023-04-10T04:12:28.708Z,86.10
2023-04-10T04:16:38.082Z,85.00
2023-04-10T04:21:18.297Z,85.83
2023-04-10T04:25:56.909Z,85.32
2023-04-10T04:30:17.196Z,86.04
2023-04-10T04:34:25.029Z,86.85
2023-04-10T04:38:45.883Z,87.43
2023-04-10T04:43:06.505Z,89.03
2023-04-10T04:47:32.425Z,90.08
2023-04-10T04:51:54.674Z,90.96
2023-04-10T04:56:12.954Z,89.43
2023-04-10T05:00:38.505Z,88.35
2023-04-10T05:04:45.802Z,88.87
2023-04-10T05:09:10.904Z,89.77
2023-04-10T05:13:42.173Z,87.98
2023-04-10T05:18:11.528Z,88.87
2023-04-10T05:22:34.070Z,88.35
2023-04-10T05:27:08.397Z,88.39
2023-04-10T05:31:39.698Z,86.97
2023-04-10T05:36:12.827Z,85.70
2023-04-10T05:40:29.108Z,83.85
2023-04-10T05:44:52.715Z,82.94
2023-04-10T05:49:11.733Z,82.06
2023-04-10T05:53:31.787Z,81.45
2023-04-10T05:58:00.148Z,80.46
2023-04-10T06:02:35.722Z,79.03
2023-04-10T06:06:38.727Z,78.41
2023-04-10T06:10:40.886Z,77.16
2023-04-10T06:14:47.535Z,71.97
2023-04-10T06:18:54.583Z,65.92
2023-04-10T06:22:58.382Z,60.67
2023-04-10T06:27:00.778Z,56.22
2023-04-10T06:31:04.144Z,54.42
2023-04-10T06:35:09.649Z,52.80
2023-04-10T06:39:11.705Z,52.06
2023-04-10T06:43:13.903Z,50.60
2023-04-10T06:47:16.942Z,50.06
2023-04-10T06:51:18.989Z,48.82
2023-04-10T06:55:21.327Z,47.38
2023-04-10T06:59:23.311Z,45.82
2023-04-10T07:03:25.638Z,46.75
2023-04-10T07:07:29.235Z,49.71
2023-04-10T07:11:31.283Z,51.38
2023-04-10T07:15:33.343Z,53.14
2023-04-10T07:19:35.608Z,54.47
2023-04-10T07:23:37.701Z,55.12
2023-04-10T07:27:39.948Z,56.26
2023-04-10T07:31:42.282Z,57.18
2023-04-10T07:35:44.432Z,57.43
2023-04-10T07:39:46.457Z,57.34
2023-04-10T07:43:48.652Z,57.54
2023-04-10T07:47:50.675Z,58.16
2023-04-10T07:51:52.950Z,61.01
2023-04-10T07:55:54.971Z,58.12
2023-04-10T07:59:57.147Z,57.37
2023-04-10T08:03:59.357Z,56.50
2023-04-10T08:08:02.099Z,56.84
2023-04-10T08:12:04.181Z,56.72
2023-04-10T08:16:06.653Z,57.66
2023-04-10T08:20:09.754Z,58.07
2023-04-10T08:24:11.758Z,57.78
2023-04-10T08:28:13.797Z,57.89
2023-04-10T08:32:15.905Z,57.60
2023-04-10T08:36:20.081Z,58.41
2023-04-10T08:40:22.451Z,58.32
2023-04-10T08:44:24.434Z,57.78
2023-04-10T08:48:46.194Z,57.80
2023-04-10T08:52:51.855Z,58.25
2023-04-10T08:56:55.838Z,57.95
2023-04-10T09:00:58.566Z,57.92
2023-04-10T09:05:03.933Z,57.11
2023-04-10T09:09:06.811Z,56.77
2023-04-10T09:13:08.843Z,56.03
2023-04-10T09:17:19.241Z,56.56
2023-04-10T09:21:22.063Z,57.02
2023-04-10T09:25:34.460Z,56.25
2023-04-10T09:29:48.259Z,55.72
2023-04-10T09:34:07.414Z,54.71
2023-04-10T09:38:16.973Z,53.78
2023-04-10T09:42:30.850Z,52.26
2023-04-10T09:46:33.072Z,51.18
2023-04-10T09:50:40.928Z,49.73
2023-04-10T09:54:43.112Z,49.03
2023-04-10T09:58:45.338Z,49.50
2023-04-10T10:02:49.356Z,47.72
2023-04-10T10:06:51.572Z,48.29
2023-04-10T10:10:56.772Z,47.64
2023-04-10T10:15:11.742Z,47.71
2023-04-10T10:19:24.571Z,47.84
2023-04-10T10:23:27.546Z,47.56
2023-04-10T10:27:37.599Z,47.95
2023-04-10T10:31:40.209Z,46.59
2023-04-10T10:35:42.968Z,46.14
2023-04-10T10:40:09.072Z,46.56
2023-04-10T10:44:22.025Z,46.34
2023-04-10T10:48:24.087Z,45.38
2023-04-10T10:52:49.811Z,44.66
2023-04-10T10:56:51.842Z,44.35
2023-04-10T11:01:05.044Z,44.61
2023-04-10T11:05:07.750Z,43.85
2023-04-10T11:09:49.660Z,43.85
2023-04-10T11:13:57.762Z,44.49
2023-04-10T11:18:01.095Z,44.12
2023-04-10T11:22:08.076Z,43.42
2023-04-10T11:26:10.839Z,43.49
2023-04-10T11:30:29.497Z,43.46
2023-04-10T11:34:33.095Z,42.99
2023-04-10T11:38:35.281Z,41.86
2023-04-10T11:42:37.826Z,42.20
2023-04-10T11:46:42.043Z,42.50
2023-04-10T11:50:44.232Z,41.93
2023-04-10T11:54:49.177Z,41.33
2023-04-10T11:58:54.191Z,41.47
2023-04-10T12:02:57.003Z,41.68
2023-04-10T12:06:59.477Z,40.99
2023-04-10T12:11:01.693Z,41.26
2023-04-10T12:15:23.444Z,40.38
2023-04-10T12:19:26.150Z,39.81
2023-04-10T12:23:29.854Z,39.72
2023-04-10T12:27:31.884Z,40.34
2023-04-10T12:31:36.380Z,40.11
2023-04-10T12:35:39.614Z,40.10
2023-04-10T12:39:41.730Z,40.13
2023-04-10T12:43:44.767Z,39.24
2023-04-10T12:47:49.131Z,38.99
2023-04-10T12:51:52.393Z,39.60
2023-04-10T12:55:59.338Z,38.88
2023-04-10T13:00:03.298Z,38.00
2023-04-10T13:04:05.803Z,36.96
2023-04-10T13:08:08.009Z,36.82
2023-04-10T13:12:10.018Z,35.99
2023-04-10T13:16:13.967Z,34.51
2023-04-10T13:20:16.361Z,34.45
2023-04-10T13:24:18.388Z,33.58
2023-04-10T13:28:21.535Z,32.03
2023-04-10T13:32:23.696Z,33.05
2023-04-10T13:36:26.735Z,32.68
2023-04-10T13:40:29.021Z,31.80
2023-04-10T13:44:31.283Z,32.42
2023-04-10T13:48:40.134Z,32.06
2023-04-10T13:52:42.568Z,31.91
2023-04-10T13:56:46.365Z,32.50
2023-04-10T14:00:48.642Z,32.39
2023-04-10T14:04:51.271Z,32.21
2023-04-10T14:08:53.520Z,32.57
2023-04-10T14:12:56.324Z,33.08
2023-04-10T14:16:58.579Z,33.38
2023-04-10T14:21:00.675Z,33.45
2023-04-10T14:25:12.290Z,33.47
2023-04-10T14:29:18.197Z,33.34
2023-04-10T14:33:22.348Z,33.31
2023-04-10T14:37:24.431Z,33.60
2023-04-10T14:41:26.692Z,34.08
2023-04-10T14:45:28.811Z,33.80
2023-04-10T14:49:30.841Z,33.44
2023-04-10T14:53:32.856Z,33.49
2023-04-10T14:57:36.033Z,34.15
2023-04-10T15:01:38.252Z,34.66
2023-04-10T15:05:40.326Z,34.56
2023-04-10T15:09:43.764Z,34.03
2023-04-10T15:13:47.397Z,34.54
2023-04-10T15:17:49.540Z,34.61
2023-04-10T15:21:51.568Z,34.95
2023-04-10T15:25:53.639Z,34.61
2023-04-10T15:29:55.705Z,34.15
2023-04-10T15:33:57.805Z,34.42
2023-04-10T15:37:59.976Z,34.68
2023-04-10T15:42:04.184Z,33.78
2023-04-10T15:46:06.459Z,32.93
2023-04-10T15:50:10.567Z,33.18
2023-04-10T15:54:12.839Z,32.39
2023-04-10T15:58:14.863Z,33.27
2023-04-10T16:02:16.923Z,32.73
2023-04-10T16:06:18.973Z,33.37
2023-04-10T16:10:21.284Z,33.35
2023-04-10T16:14:23.442Z,33.29
2023-04-10T16:18:25.479Z,33.81
2023-04-10T16:22:27.562Z,33.80
2023-04-10T16:26:29.564Z,33.99
2023-04-10T16:30:31.538Z,33.75
2023-04-10T16:34:34.431Z,34.12
2023-04-10T16:38:36.527Z,34.09
2023-04-10T16:42:39.379Z,34.62
2023-04-10T16:46:41.447Z,34.62
2023-04-10T16:50:43.528Z,34.91
2023-04-10T16:54:45.545Z,34.83
2023-04-10T16:58:47.604Z,34.89
2023-04-10T17:02:49.902Z,35.15
2023-04-10T17:06:51.995Z,35.17
2023-04-10T17:10:54.168Z,35.31
2023-04-10T17:14:56.168Z,35.50
2023-04-10T17:18:58.295Z,35.90
2023-04-10T17:23:00.340Z,36.14
2023-04-10T17:27:02.394Z,36.74
2023-04-10T17:31:04.610Z,36.97
2023-04-10T17:35:06.945Z,37.41
2023-04-10T17:39:08.953Z,38.10
2023-04-10T17:43:10.991Z,38.27
2023-04-10T17:47:13.069Z,38.53
2023-04-10T17:51:15.234Z,38.77
2023-04-10T17:55:20.386Z,39.03
2023-04-10T17:59:22.978Z,39.30
2023-04-10T18:03:25.143Z,39.39
2023-04-10T18:07:27.174Z,39.54
2023-04-10T18:11:29.737Z,39.34
2023-04-10T18:15:31.731Z,38.95
2023-04-10T18:19:33.759Z,38.89
2023-04-10T18:23:35.776Z,38.70
2023-04-10T18:27:42.306Z,38.43
2023-04-10T18:31:44.398Z,38.46
2023-04-10T18:35:46.949Z,38.41
2023-04-10T18:39:49.017Z,38.56
2023-04-10T18:44:01.751Z,38.79
2023-04-10T18:48:07.336Z,38.92
2023-04-10T18:52:09.382Z,39.45
2023-04-10T18:56:11.382Z,39.51
2023-04-10T19:00:13.786Z,39.88
2023-04-10T19:04:15.971Z,39.97
2023-04-10T19:08:18.684Z,40.37
2023-04-10T19:12:20.747Z,40.79
2023-04-10T19:16:23.075Z,40.91
2023-04-10T19:20:52.087Z,41.11
2023-04-10T19:24:47.261Z,41.54
2023-04-10T19:28:49.313Z,41.82
2023-04-10T19:32:51.347Z,41.94
2023-04-10T19:36:54.570Z,42.20
2023-04-10T19:40:56.732Z,42.48
2023-04-10T19:44:58.958Z,44.50
2023-04-10T19:49:00.965Z,42.97
2023-04-10T19:53:04.378Z,43.10
2023-04-10T19:57:06.402Z,44.05
2023-04-10T20:01:08.963Z,45.82
2023-04-10T20:05:11.434Z,47.13
2023-04-10T20:09:15.652Z,48.16
2023-04-10T20:13:17.728Z,48.18
2023-04-10T20:17:19.873Z,48.36
2023-04-10T20:21:21.946Z,50.44
2023-04-10T20:25:23.976Z,53.91
2023-04-10T20:29:26.357Z,54.08
2023-04-10T20:33:28.492Z,54.23
2023-04-10T20:37:30.645Z,55.08
2023-04-10T20:41:32.686Z,56.68
2023-04-10T20:45:34.729Z,57.35
2023-04-10T20:49:39.708Z,58.18
2023-04-10T20:53:41.751Z,58.67
2023-04-10T20:57:43.844Z,59.14
2023-04-10T21:01:46.027Z,58.83
2023-04-10T21:05:48.132Z,59.18
2023-04-10T21:09:50.224Z,59.18
2023-04-10T21:13:52.767Z,59.12
2023-04-10T21:17:54.807Z,59.09
2023-04-10T21:21:57.156Z,58.83
2023-04-10T21:25:59.444Z,58.57
2023-04-10T21:30:01.542Z,58.44
2023-04-10T21:34:03.706Z,58.35
2023-04-10T21:38:05.805Z,58.39
2023-04-10T21:42:07.826Z,58.33
2023-04-10T21:46:10.049Z,58.42
2023-04-10T21:50:12.124Z,58.43
2023-04-10T21:54:14.181Z,58.61
2023-04-10T21:58:16.307Z,62.05
2023-04-10T22:02:18.457Z,61.38
2023-04-10T22:06:20.947Z,62.28
2023-04-10T22:10:22.976Z,62.80
2023-04-10T22:14:25.974Z,66.03
2023-04-10T22:18:28.108Z,69.57
2023-04-10T22:22:30.671Z,72.07
2023-04-10T22:26:34.164Z,75.46
2023-04-10T22:30:36.251Z,78.21
2023-04-10T22:34:38.360Z,81.28
2023-04-10T22:38:40.368Z,83.75
2023-04-10T22:42:43.604Z,84.97
2023-04-10T22:46:48.139Z,86.26
2023-04-10T22:50:50.229Z,86.96
2023-04-10T22:54:52.319Z,88.44
2023-04-10T22:58:55.195Z,89.08
2023-04-10T23:02:57.426Z,90.41
2023-04-10T23:06:59.665Z,91.22
2023-04-10T23:11:01.701Z,91.53
2023-04-10T23:15:05.328Z,93.16
2023-04-10T23:19:07.357Z,93.90
2023-04-10T23:23:09.401Z,97.62
2023-04-10T23:27:11.418Z,88.38
2023-04-10T23:31:13.488Z,87.63
2023-04-10T23:35:15.669Z,87.80
2023-04-10T23:39:17.718Z,89.95
2023-04-10T23:43:19.740Z,92.34
2023-04-10T23:47:21.927Z,93.05
2023-04-10T23:51:23.945Z,93.71
2023-04-10T23:55:26.139Z,94.33
2023-04-10T23:59:28.144Z,94.50
